Time;durP1;ratioP1;P1;durP2;ratioP2;P2;SDS_P1;SDS_P2;PMS_P1;PMS_P2;Temp;Humidity;BMP_temperature;BMP_pressure;BME280_temperature;BME280_humidity;BME280_pressure;Samples;Min_cycle;Max_cycle;Signal;HPM_P1;HPM_P2
2021/11/20 00:01:48;;;;;;;7.60;6.80;;;12.30;99.90;;;;;;5070398;28;20119;-43
2021/11/20 00:04:14;;;;;;;10.90;8.60;;;12.30;99.90;;;;;;5069688;28;20480;-42
2021/11/20 00:06:44;;;;;;;8.23;7.07;;;12.30;99.90;;;;;;5052318;28;20036;-44
2021/11/20 00:09:12;;;;;;;8.10;7.30;;;12.30;99.90;;;;;;5064918;28;20087;-44
2021/11/20 00:11:40;;;;;;;8.45;6.43;;;12.30;99.90;;;;;;5067093;28;20032;-44
2021/11/20 00:14:09;;;;;;;7.47;6.75;;;12.30;99.90;;;;;;5069161;28;20153;-43
2021/11/20 00:16:35;;;;;;;6.60;5.60;;;12.30;99.90;;;;;;5068307;28;20048;-43
2021/11/20 00:19:01;;;;;;;8.68;7.15;;;12.30;99.90;;;;;;5068437;28;20035;-43
2021/11/20 00:21:31;;;;;;;7.18;6.47;;;12.30;99.90;;;;;;5068663;28;20023;-43
2021/11/20 00:24:00;;;;;;;8.93;6.82;;;12.30;99.90;;;;;;5047370;28;20664;-43
2021/11/20 00:26:34;;;;;;;7.75;6.88;;;12.30;99.90;;;;;;5062939;28;20020;-43
2021/11/20 00:29:11;;;;;;;6.97;5.82;;;12.30;99.90;;;;;;5068583;28;20027;-43
2021/11/20 00:31:44;;;;;;;7.00;6.30;;;12.30;99.90;;;;;;5068343;28;20064;-42
2021/11/20 00:34:11;;;;;;;;;;;12.30;99.90;;;;;;5068635;28;20040;-43
2021/11/20 00:36:37;;;;;;;6.75;6.10;;;12.30;99.90;;;;;;5067372;28;20058;-44
2021/11/20 00:39:05;;;;;;;6.25;5.65;;;12.30;99.90;;;;;;5068855;28;20179;-43
2021/11/20 00:41:31;;;;;;;7.78;6.40;;;12.30;99.90;;;;;;5067700;28;20029;-43
2021/11/20 00:43:57;;;;;;;6.82;6.13;;;12.30;99.90;;;;;;5068254;28;20032;-43
2021/11/20 00:46:26;;;;;;;7.43;6.40;;;12.30;99.90;;;;;;5068144;28;20024;-43
2021/11/20 00:48:52;;;;;;;8.13;6.40;;;12.30;99.90;;;;;;5068032;28;20082;-44
2021/11/20 00:51:20;;;;;;;7.20;6.07;;;12.30;99.90;;;;;;5068174;28;20031;-44
2021/11/20 00:53:46;;;;;;;6.50;5.90;;;12.30;99.90;;;;;;5067863;28;20025;-43
2021/11/20 00:56:14;;;;;;;7.50;6.38;;;12.30;99.90;;;;;;5068018;28;20034;-43
2021/11/20 00:58:40;;;;;;;9.55;7.07;;;12.20;99.90;;;;;;5067483;28;20032;-44
2021/11/20 01:01:11;;;;;;;8.55;6.88;;;12.20;99.90;;;;;;5067337;28;20036;-44
2021/11/20 01:03:37;;;;;;;8.30;5.53;;;12.30;99.90;;;;;;5068050;28;20017;-44
2021/11/20 01:06:03;;;;;;;6.72;5.35;;;12.30;99.90;;;;;;5067361;28;20048;-43
2021/11/20 01:08:33;;;;;;;7.75;6.38;;;12.20;99.90;;;;;;5067837;28;20020;-43
2021/11/20 01:11:07;;;;;;;8.10;6.90;;;12.20;99.90;;;;;;5067522;28;20392;-43
2021/11/20 01:13:34;;;;;;;7.70;6.82;;;12.20;99.90;;;;;;5066894;28;20497;-43
2021/11/20 01:16:05;;;;;;;7.80;7.00;;;12.20;99.90;;;;;;5032712;28;1007092;-43
2021/11/20 01:18:31;;;;;;;8.07;7.28;;;12.20;99.90;;;;;;5054084;28;20037;-43
2021/11/20 01:20:57;;;;;;;7.93;6.88;;;12.20;99.90;;;;;;5046737;28;20025;-43
2021/11/20 01:23:25;;;;;;;8.07;7.10;;;12.20;99.90;;;;;;5062007;28;20028;-43
2021/11/20 01:25:52;;;;;;;8.20;7.40;;;12.20;99.90;;;;;;5067686;28;20032;-43
2021/11/20 01:28:19;;;;;;;8.48;7.28;;;12.10;99.90;;;;;;5068576;28;20032;-43
2021/11/20 01:30:46;;;;;;;8.00;7.20;;;12.10;99.90;;;;;;5068656;28;20073;-43
2021/11/20 01:33:12;;;;;;;10.38;9.27;;;12.10;99.90;;;;;;5067492;28;20085;-43
2021/11/20 01:35:38;;;;;;;8.30;7.20;;;12.10;99.90;;;;;;5067096;28;20036;-43
2021/11/20 01:38:05;;;;;;;10.00;9.00;;;12.10;99.90;;;;;;5068345;28;20027;-43
2021/11/20 01:40:34;;;;;;;9.95;9.02;;;12.10;99.90;;;;;;5068235;28;20075;-43
2021/11/20 01:43:00;;;;;;;9.65;8.65;;;12.00;99.90;;;;;;5067602;28;20078;-43
2021/11/20 01:45:33;;;;;;;9.60;8.57;;;12.00;99.90;;;;;;5068481;28;20064;-42
2021/11/20 01:48:27;;;;;;;10.15;8.70;;;12.00;99.90;;;;;;5067578;28;20012;-43
2021/11/20 01:51:04;;;;;;;9.57;8.68;;;12.00;99.90;;;;;;5059995;28;20107;-43
2021/11/20 01:53:36;;;;;;;9.30;8.40;;;12.00;99.90;;;;;;5067460;28;20027;-44
2021/11/20 01:56:08;;;;;;;13.95;9.52;;;12.00;99.90;;;;;;5067852;28;20028;-43
2021/11/20 01:59:00;;;;;;;10.52;9.43;;;12.10;99.90;;;;;;5067708;28;20021;-43
2021/11/20 02:01:32;;;;;;;9.25;8.35;;;12.10;99.90;;;;;;5066837;28;20455;-43
2021/11/20 02:04:05;;;;;;;8.98;8.15;;;12.10;99.90;;;;;;5067847;28;20034;-43
2021/11/20 02:06:41;;;;;;;11.45;10.20;;;12.00;99.90;;;;;;5067972;28;20037;-43
2021/11/20 02:09:14;;;;;;;10.68;9.57;;;12.00;99.90;;;;;;5067126;28;20028;-43
2021/11/20 02:11:45;;;;;;;11.85;10.32;;;12.10;99.90;;;;;;5067389;28;20056;-44
2021/11/20 02:14:14;;;;;;;9.48;8.57;;;12.00;99.90;;;;;;5067511;28;20024;-44
2021/11/20 02:16:47;;;;;;;11.32;9.10;;;12.00;99.90;;;;;;5066954;28;20056;-44
2021/11/20 02:19:21;;;;;;;11.02;9.73;;;12.00;99.90;;;;;;5066935;28;20024;-43
2021/11/20 02:21:57;;;;;;;11.27;10.05;;;12.00;99.90;;;;;;5067807;28;20025;-43
2021/11/20 02:24:22;;;;;;;11.02;9.93;;;12.00;99.90;;;;;;5066819;28;20032;-43
2021/11/20 02:26:48;;;;;;;10.65;9.55;;;12.00;99.90;;;;;;5067164;28;20028;-42
2021/11/20 02:29:14;;;;;;;11.00;9.90;;;12.00;99.90;;;;;;5067317;28;20404;-44
2021/11/20 02:31:47;;;;;;;10.30;9.20;;;12.00;99.90;;;;;;5067046;28;20040;-43
2021/11/20 02:34:13;;;;;;;11.38;10.25;;;12.00;99.90;;;;;;5067739;28;20036;-43
2021/11/20 02:36:39;;;;;;;10.32;9.25;;;12.00;99.90;;;;;;5066744;28;20020;-44
2021/11/20 02:39:13;;;;;;;11.18;10.02;;;12.00;99.90;;;;;;5066751;28;20498;-43
2021/11/20 02:41:44;;;;;;;11.63;10.15;;;12.00;99.90;;;;;;5066699;28;20099;-43
2021/11/20 02:44:10;;;;;;;10.40;9.30;;;12.00;99.90;;;;;;5066933;28;20028;-44
2021/11/20 02:46:39;;;;;;;11.20;10.00;;;12.00;99.90;;;;;;5066635;28;20031;-43
2021/11/20 02:49:07;;;;;;;11.70;10.50;;;12.00;99.90;;;;;;5067499;28;20120;-43
2021/11/20 02:51:36;;;;;;;11.75;10.55;;;12.00;99.90;;;;;;5066589;28;20032;-43
2021/11/20 02:54:16;;;;;;;11.52;10.43;;;12.00;99.90;;;;;;5066734;28;20370;-43
2021/11/20 02:56:45;;;;;;;11.25;10.15;;;12.00;99.90;;;;;;5062308;28;21059;-43
2021/11/20 02:59:11;;;;;;;10.65;9.63;;;12.00;99.90;;;;;;5053796;28;20017;-43
2021/11/20 03:01:38;;;;;;;10.38;9.27;;;12.00;99.90;;;;;;5060363;28;20098;-43
2021/11/20 03:04:07;;;;;;;11.65;10.25;;;12.00;99.90;;;;;;5066425;28;20028;-43
2021/11/20 03:06:33;;;;;;;10.50;9.13;;;12.00;99.90;;;;;;5066501;28;20086;-43
2021/11/20 03:08:59;;;;;;;12.55;10.25;;;12.00;99.90;;;;;;5067037;28;20025;-43
2021/11/20 03:11:24;;;;;;;12.00;10.55;;;11.90;99.90;;;;;;5066638;28;20024;-43
2021/11/20 03:13:52;;;;;;;11.40;10.20;;;11.90;99.90;;;;;;5066605;28;20060;-43
2021/11/20 03:16:18;;;;;;;9.88;8.82;;;12.00;99.90;;;;;;5066843;28;20125;-43
2021/11/20 03:18:44;;;;;;;12.77;11.07;;;12.00;99.90;;;;;;5066640;28;20456;-44
2021/11/20 03:21:13;;;;;;;12.52;11.13;;;11.90;99.90;;;;;;5066704;28;20349;-44
2021/11/20 03:23:42;;;;;;;12.25;10.77;;;11.90;99.90;;;;;;5056421;28;20060;-43
2021/11/20 03:26:08;;;;;;;13.50;10.70;;;11.90;99.90;;;;;;5065678;28;20839;-44
2021/11/20 03:28:34;;;;;;;12.38;11.05;;;11.90;99.90;;;;;;5066528;28;20025;-43
2021/11/20 03:30:59;;;;;;;10.75;9.75;;;11.90;99.90;;;;;;5067068;28;20478;-43
2021/11/20 03:33:25;;;;;;;12.20;10.98;;;11.90;99.90;;;;;;5066087;28;20042;-44
2021/11/20 03:35:53;;;;;;;13.38;11.40;;;11.90;99.90;;;;;;5066622;28;20552;-44
2021/11/20 03:38:19;;;;;;;12.73;11.05;;;11.90;99.90;;;;;;5066496;28;20024;-44
2021/11/20 03:40:45;;;;;;;13.13;11.73;;;11.90;99.90;;;;;;5067013;28;20029;-44
2021/11/20 03:43:11;;;;;;;13.98;12.45;;;11.90;99.90;;;;;;5066437;28;20412;-43
2021/11/20 03:45:41;;;;;;;15.05;12.45;;;11.90;99.90;;;;;;5066581;28;20032;-43
2021/11/20 03:48:08;;;;;;;12.80;11.48;;;11.90;99.90;;;;;;5066354;28;20047;-43
2021/11/20 03:50:34;;;;;;;18.08;13.23;;;11.90;99.90;;;;;;5065883;28;20551;-43
2021/11/20 03:53:03;;;;;;;14.73;12.95;;;11.90;99.90;;;;;;5066522;28;20009;-43
2021/11/20 03:55:32;;;;;;;12.98;11.57;;;11.90;99.90;;;;;;5066387;28;20048;-43
2021/11/20 03:57:58;;;;;;;15.98;13.52;;;11.90;99.90;;;;;;5068046;28;20103;-43
2021/11/20 04:00:28;;;;;;;14.75;12.68;;;11.90;99.90;;;;;;5070375;28;20040;-43
2021/11/20 04:02:53;;;;;;;15.23;12.73;;;11.90;99.90;;;;;;5069546;28;20048;-43
2021/11/20 04:05:21;;;;;;;15.02;13.43;;;11.80;99.90;;;;;;5070450;28;20063;-44
2021/11/20 04:07:47;;;;;;;17.48;14.73;;;11.80;99.90;;;;;;5070040;28;20016;-43
2021/11/20 04:10:13;;;;;;;16.75;14.60;;;11.80;99.90;;;;;;5069761;28;20028;-43
2021/11/20 04:12:40;;;;;;;17.17;15.18;;;11.80;99.90;;;;;;5069493;28;20028;-43
2021/11/20 04:15:08;;;;;;;15.73;14.02;;;11.80;99.90;;;;;;5069508;28;20389;-43
2021/11/20 04:17:37;;;;;;;16.80;14.85;;;11.80;99.90;;;;;;5069196;28;20124;-43
2021/11/20 04:20:09;;;;;;;19.60;16.50;;;11.70;99.90;;;;;;5066253;28;20116;-43
2021/11/20 04:22:38;;;;;;;17.40;15.20;;;11.70;99.90;;;;;;5069108;28;20021;-43
2021/11/20 04:25:07;;;;;;;18.40;16.08;;;11.70;99.90;;;;;;5069308;28;20024;-43
2021/11/20 04:27:33;;;;;;;14.65;12.88;;;11.70;99.90;;;;;;5069312;28;20056;-43
2021/11/20 04:30:04;;;;;;;17.65;14.63;;;11.70;99.90;;;;;;5068762;28;20052;-43
2021/11/20 04:32:29;;;;;;;16.77;14.20;;;11.70;99.90;;;;;;5069736;28;20050;-43
2021/11/20 04:34:57;;;;;;;17.30;14.10;;;11.70;99.90;;;;;;5069277;28;20058;-42
2021/11/20 04:37:23;;;;;;;16.70;13.48;;;11.70;99.90;;;;;;5049177;28;20025;-43
2021/11/20 04:39:48;;;;;;;14.82;12.52;;;11.70;99.90;;;;;;5063211;28;20043;-45
2021/11/20 04:42:15;;;;;;;14.27;12.38;;;11.70;99.90;;;;;;5069561;28;20021;-43
2021/11/20 04:44:41;;;;;;;15.18;13.27;;;11.70;99.90;;;;;;5068331;28;20025;-44
2021/11/20 04:47:06;;;;;;;18.42;14.45;;;11.70;99.90;;;;;;5066801;28;20036;-44
2021/11/20 04:49:32;;;;;;;19.90;16.20;;;11.70;99.90;;;;;;5055292;28;20029;-44
2021/11/20 04:51:57;;;;;;;20.77;16.75;;;11.70;99.90;;;;;;5067731;28;20032;-44
2021/11/20 04:54:23;;;;;;;20.98;17.13;;;11.70;99.90;;;;;;5068191;28;20395;-44
2021/11/20 04:56:48;;;;;;;20.23;16.48;;;11.70;99.90;;;;;;5068467;28;20078;-44
2021/11/20 04:59:14;;;;;;;18.70;15.45;;;11.70;99.90;;;;;;5069315;28;20018;-44
2021/11/20 05:01:40;;;;;;;19.52;15.95;;;11.70;99.90;;;;;;5069254;28;20036;-43
2021/11/20 05:04:06;;;;;;;19.35;15.73;;;11.70;99.90;;;;;;5068581;28;20032;-43
2021/11/20 05:06:33;;;;;;;17.80;15.18;;;11.70;99.90;;;;;;5068709;28;20040;-43
2021/11/20 05:08:59;;;;;;;21.13;15.85;;;11.70;99.90;;;;;;5067586;28;20291;-43
2021/11/20 05:11:30;;;;;;;17.02;14.23;;;11.70;99.90;;;;;;5067924;28;20025;-43
2021/11/20 05:13:57;;;;;;;19.10;15.88;;;11.70;99.90;;;;;;5068994;28;20029;-43
2021/11/20 05:16:23;;;;;;;18.13;15.02;;;11.70;99.90;;;;;;5067911;28;20522;-42
2021/11/20 05:18:49;;;;;;;17.10;14.55;;;11.70;99.90;;;;;;5068453;28;20028;-43
2021/11/20 05:21:16;;;;;;;21.33;18.15;;;11.70;99.90;;;;;;5068601;28;20027;-43
2021/11/20 05:23:42;;;;;;;22.60;18.17;;;11.70;99.90;;;;;;5068179;28;20059;-43
2021/11/20 05:26:12;;;;;;;23.48;18.88;;;11.80;99.90;;;;;;5068022;28;20460;-43
2021/11/20 05:28:37;;;;;;;24.23;18.70;;;11.70;99.90;;;;;;5068028;28;20024;-43
2021/11/20 05:31:03;;;;;;;18.55;15.82;;;11.70;99.90;;;;;;5068431;28;20016;-42
2021/11/20 05:33:36;;;;;;;18.48;15.63;;;11.70;99.90;;;;;;5068105;28;20422;-43
2021/11/20 05:36:04;;;;;;;19.17;15.73;;;11.70;99.90;;;;;;5067954;28;20056;-43
2021/11/20 05:38:30;;;;;;;17.75;14.77;;;11.70;99.90;;;;;;5068089;28;20029;-43
2021/11/20 05:40:56;;;;;;;22.90;17.48;;;11.70;99.90;;;;;;5067589;28;20052;-43
2021/11/20 05:43:22;;;;;;;24.85;19.48;;;11.70;99.90;;;;;;5068109;28;20032;-43
2021/11/20 05:45:51;;;;;;;25.83;20.13;;;11.70;99.90;;;;;;5068340;28;20025;-43
2021/11/20 05:48:17;;;;;;;21.95;17.02;;;11.70;99.90;;;;;;5068227;28;20020;-43
2021/11/20 05:50:43;;;;;;;21.77;17.30;;;11.70;99.90;;;;;;5068140;28;20036;-43
2021/11/20 05:53:21;;;;;;;20.83;16.33;;;11.70;99.90;;;;;;5063403;28;20025;-44
2021/11/20 05:55:49;;;;;;;22.63;16.85;;;11.70;99.90;;;;;;5067966;28;20064;-43
2021/11/20 05:58:16;;;;;;;21.88;17.27;;;11.70;99.90;;;;;;5068285;28;20031;-44
2021/11/20 06:00:46;;;;;;;24.08;18.38;;;11.70;99.90;;;;;;5067614;28;20106;-43
2021/11/20 06:03:13;;;;;;;24.92;19.17;;;11.70;99.90;;;;;;5067606;28;20016;-43
2021/11/20 06:05:40;;;;;;;22.02;17.83;;;11.70;99.90;;;;;;5067231;28;20043;-43
2021/11/20 06:08:06;;;;;;;22.15;18.08;;;11.70;99.90;;;;;;5067088;28;20020;-44
2021/11/20 06:10:32;;;;;;;25.50;20.02;;;11.70;99.90;;;;;;5067824;28;20032;-44
2021/11/20 06:13:05;;;;;;;24.70;18.85;;;11.70;99.90;;;;;;5067582;28;20027;-44
2021/11/20 06:15:31;;;;;;;23.30;17.98;;;11.60;99.90;;;;;;5066672;28;20044;-43
2021/11/20 06:17:56;;;;;;;24.25;18.90;;;11.60;99.90;;;;;;5067058;28;20043;-43
2021/11/20 06:20:22;;;;;;;25.05;18.52;;;11.60;99.90;;;;;;5067330;28;20060;-43
2021/11/20 06:22:48;;;;;;;23.48;17.35;;;11.60;99.90;;;;;;5067398;28;20470;-44
2021/11/20 06:25:17;;;;;;;24.58;18.70;;;11.60;99.90;;;;;;5067600;28;20020;-44
2021/11/20 06:27:43;;;;;;;25.23;18.73;;;11.60;99.90;;;;;;5067245;28;20017;-43
2021/11/20 06:30:12;;;;;;;23.45;17.85;;;11.60;99.90;;;;;;5066397;28;20528;-44
2021/11/20 06:32:39;;;;;;;22.55;17.42;;;11.60;99.90;;;;;;5067197;28;20031;-43
2021/11/20 06:35:11;;;;;;;27.77;19.52;;;11.60;99.90;;;;;;5061311;28;20511;-43
2021/11/20 06:37:39;;;;;;;26.83;19.65;;;11.60;99.90;;;;;;5061299;28;20025;-43
2021/11/20 06:40:07;;;;;;;24.77;18.92;;;11.60;99.90;;;;;;5062420;28;20017;-44
2021/11/20 06:42:32;;;;;;;24.42;18.45;;;11.60;99.90;;;;;;5048744;28;20039;-43
2021/11/20 06:44:58;;;;;;;25.25;18.00;;;11.60;99.90;;;;;;5066718;28;20050;-43
2021/11/20 06:47:24;;;;;;;24.88;18.15;;;11.60;99.90;;;;;;5067541;28;20033;-43
2021/11/20 06:49:50;;;;;;;25.73;19.05;;;11.60;99.90;;;;;;5066306;28;20505;-43
2021/11/20 06:52:16;;;;;;;25.13;18.27;;;11.60;99.90;;;;;;5067047;28;20033;-44
2021/11/20 06:54:42;;;;;;;25.77;18.77;;;11.60;99.90;;;;;;5066939;28;20094;-43
2021/11/20 06:57:10;;;;;;;25.67;18.50;;;11.60;99.90;;;;;;5066334;28;20511;-43
2021/11/20 07:02:21;;;;;;;26.42;18.10;;;11.60;99.90;;;;;;5067315;28;20036;-43
2021/11/20 07:04:49;;;;;;;23.42;17.65;;;11.60;99.90;;;;;;5066246;28;20525;-44
2021/11/20 07:07:15;;;;;;;27.48;18.80;;;11.60;99.90;;;;;;5067027;28;20056;-44
2021/11/20 07:09:41;;;;;;;27.27;19.25;;;11.60;99.90;;;;;;5066838;28;20116;-43
2021/11/20 07:12:07;;;;;;;25.88;18.27;;;11.60;99.90;;;;;;5066411;28;20059;-44
2021/11/20 07:14:33;;;;;;;21.75;16.52;;;11.60;99.90;;;;;;5066479;28;20399;-44
2021/11/20 07:16:59;;;;;;;25.45;17.73;;;11.60;99.90;;;;;;5066305;28;20056;-43
2021/11/20 07:19:25;;;;;;;25.63;17.20;;;11.50;99.90;;;;;;5065761;28;20094;-44
2021/11/20 07:21:50;;;;;;;21.75;16.15;;;11.50;99.90;;;;;;5066577;28;20461;-43
2021/11/20 07:24:18;;;;;;;24.52;17.90;;;11.60;99.90;;;;;;5067269;28;20028;-44
2021/11/20 07:26:48;;;;;;;25.02;18.10;;;11.60;99.90;;;;;;5054651;28;20048;-44
2021/11/20 07:29:14;;;;;;;26.08;18.67;;;11.60;99.90;;;;;;5066635;28;20468;-43
2021/11/20 07:31:40;;;;;;;24.80;18.05;;;11.60;99.90;;;;;;5066284;28;20025;-43
2021/11/20 07:34:06;;;;;;;26.10;18.33;;;11.60;99.90;;;;;;5069923;28;20044;-43
2021/11/20 07:36:35;;;;;;;24.83;17.48;;;11.60;99.90;;;;;;5070348;28;20070;-44
2021/11/20 07:39:03;;;;;;;24.23;16.45;;;11.60;99.90;;;;;;5070221;28;20107;-44
2021/11/20 07:41:29;;;;;;;22.55;16.10;;;11.60;99.90;;;;;;5069779;28;20024;-43
2021/11/20 07:43:56;;;;;;;24.42;16.58;;;11.60;99.90;;;;;;5068195;28;20369;-43
2021/11/20 07:46:22;;;;;;;25.33;18.02;;;11.60;99.90;;;;;;5066141;28;20437;-44
2021/11/20 07:48:48;;;;;;;26.00;18.25;;;11.60;99.90;;;;;;5070557;28;20020;-43
2021/11/20 07:51:15;;;;;;;24.83;17.98;;;11.60;99.90;;;;;;5070337;28;20086;-43
2021/11/20 07:53:42;;;;;;;25.23;17.42;;;11.60;99.90;;;;;;5070048;28;20086;-43
2021/11/20 07:56:09;;;;;;;21.58;16.45;;;11.60;99.90;;;;;;5068897;28;20360;-42
2021/11/20 07:58:36;;;;;;;26.45;19.27;;;11.60;99.90;;;;;;5070292;28;20025;-43
2021/11/20 08:01:03;;;;;;;28.75;19.02;;;11.60;99.90;;;;;;5069393;28;20111;-44
2021/11/20 08:03:29;;;;;;;25.67;18.92;;;11.60;99.90;;;;;;5069778;28;20103;-44
2021/11/20 08:05:56;;;;;;;28.33;20.25;;;11.60;99.90;;;;;;5069929;28;20096;-43
2021/11/20 08:08:22;;;;;;;27.92;20.83;;;11.60;99.90;;;;;;5069063;28;20036;-43
2021/11/20 08:10:50;;;;;;;32.05;22.65;;;11.60;99.90;;;;;;5070108;28;20024;-43
2021/11/20 08:13:19;;;;;;;27.40;20.27;;;11.60;99.90;;;;;;5070270;28;20447;-43
2021/11/20 08:15:46;;;;;;;28.35;21.38;;;11.60;99.90;;;;;;5068682;28;20052;-43
2021/11/20 08:18:15;;;;;;;34.67;25.35;;;11.60;99.90;;;;;;5067043;28;20569;-43
2021/11/20 08:20:44;;;;;;;34.72;24.95;;;11.60;99.90;;;;;;5067814;28;20025;-44
2021/11/20 08:23:13;;;;;;;29.20;21.88;;;11.60;99.90;;;;;;5068594;28;20024;-44
2021/11/20 08:25:39;;;;;;;36.42;28.42;;;11.60;99.90;;;;;;5068868;28;20025;-45
2021/11/20 08:28:07;;;;;;;36.47;27.33;;;11.60;99.90;;;;;;5068386;28;20025;-43
2021/11/20 08:30:36;;;;;;;37.00;27.58;;;11.60;99.90;;;;;;5068421;28;20036;-44
2021/11/20 08:33:02;;;;;;;38.20;28.38;;;11.60;99.90;;;;;;5068574;28;20040;-44
2021/11/20 08:35:28;;;;;;;40.58;29.88;;;11.60;99.90;;;;;;5068207;28;20036;-44
2021/11/20 08:37:55;;;;;;;37.25;27.88;;;11.60;99.90;;;;;;5068439;28;20031;-44
2021/11/20 08:40:28;;;;;;;40.78;30.05;;;11.60;99.90;;;;;;5068877;28;20036;-43
2021/11/20 08:42:53;;;;;;;41.35;30.02;;;11.60;99.90;;;;;;5067970;28;20460;-44
2021/11/20 08:45:22;;;;;;;38.58;29.27;;;11.60;99.90;;;;;;5068079;28;20024;-43
2021/11/20 08:47:49;;;;;;;39.00;28.23;;;11.60;99.90;;;;;;5068469;28;20016;-45
2021/11/20 08:50:19;;;;;;;37.00;26.90;;;11.60;99.90;;;;;;5068151;28;20024;-43
2021/11/20 08:52:45;;;;;;;34.65;26.13;;;11.60;99.90;;;;;;5068354;28;20104;-44
2021/11/20 08:55:12;;;;;;;36.53;27.48;;;11.60;99.90;;;;;;5068095;28;20052;-43
2021/11/20 08:57:39;;;;;;;37.05;27.83;;;11.60;99.90;;;;;;5067561;28;20020;-44
2021/11/20 09:00:14;;;;;;;37.88;28.33;;;11.60;99.90;;;;;;5068094;28;20039;-43
2021/11/20 09:02:48;;;;;;;39.50;28.92;;;11.60;99.90;;;;;;5067804;28;20576;-45
2021/11/20 09:05:19;;;;;;;36.22;27.58;;;11.70;99.90;;;;;;5067652;28;20029;-43
2021/11/20 09:08:04;;;;;;;36.33;28.60;;;11.70;99.90;;;;;;5067250;28;20028;-44
2021/11/20 09:10:36;;;;;;;39.78;29.92;;;11.70;99.90;;;;;;5058404;28;20561;-44
2021/11/20 09:13:41;;;;;;;37.65;28.80;;;11.70;99.90;;;;;;5067308;28;20021;-43
2021/11/20 09:16:13;;;;;;;34.60;26.48;;;11.70;99.90;;;;;;5066375;28;20075;-44
2021/11/20 09:18:40;;;;;;;37.25;28.20;;;11.70;99.90;;;;;;5067024;28;20407;-44
2021/11/20 09:21:07;;;;;;;35.72;26.70;;;11.80;99.90;;;;;;5067498;28;20021;-44
2021/11/20 09:23:33;;;;;;;33.03;25.33;;;11.80;99.90;;;;;;5067163;28;20025;-44
2021/11/20 09:25:59;;;;;;;38.63;28.52;;;11.80;99.90;;;;;;5067351;28;20464;-43
2021/11/20 09:28:26;;;;;;;38.15;29.73;;;11.90;99.90;;;;;;5067460;28;20027;-44
2021/11/20 09:30:56;;;;;;;38.83;29.92;;;11.80;99.90;;;;;;5067169;28;20066;-43
2021/11/20 09:33:23;;;;;;;35.08;27.48;;;11.90;99.90;;;;;;5067208;28;20013;-44
2021/11/20 09:35:49;;;;;;;37.25;29.05;;;11.90;99.90;;;;;;5068706;28;20679;-45
2021/11/20 09:38:16;;;;;;;35.75;27.98;;;11.90;99.90;;;;;;5067559;28;20016;-43
2021/11/20 09:40:46;;;;;;;37.28;29.23;;;11.90;99.90;;;;;;5068381;28;20027;-44
2021/11/20 09:43:21;;;;;;;34.58;27.55;;;12.00;99.90;;;;;;5068066;28;20037;-43
2021/11/20 09:45:54;;;;;;;38.22;29.40;;;12.00;99.90;;;;;;5067219;28;20476;-43
2021/11/20 09:48:36;;;;;;;38.38;29.17;;;11.90;99.90;;;;;;5068456;28;20017;-44
2021/11/20 09:51:33;;;;;;;33.13;26.17;;;12.00;99.90;;;;;;5067612;28;20383;-44
2021/11/20 09:54:05;;;;;;;32.28;26.38;;;12.00;99.90;;;;;;5064812;28;20028;-43
2021/11/20 09:56:36;;;;;;;32.25;26.38;;;12.00;99.90;;;;;;5066718;28;20491;-43
2021/11/20 09:59:06;;;;;;;35.30;27.60;;;12.00;99.90;;;;;;5067635;28;20031;-43
2021/11/20 10:01:51;;;;;;;28.50;22.60;;;12.00;99.90;;;;;;5064435;28;20064;-43
2021/11/20 10:04:44;;;;;;;32.78;25.63;;;12.00;99.90;;;;;;5068116;28;20020;-43
2021/11/20 10:07:26;;;;;;;33.05;25.67;;;12.00;99.90;;;;;;5056507;28;20640;-43
2021/11/20 10:09:56;;;;;;;30.85;25.13;;;12.10;99.90;;;;;;5066836;28;20028;-43
2021/11/20 10:12:31;;;;;;;31.40;24.48;;;12.10;99.90;;;;;;5067579;28;20029;-43
2021/11/20 10:15:06;;;;;;;30.17;24.38;;;12.10;99.90;;;;;;5066692;28;20029;-44
2021/11/20 10:17:55;;;;;;;32.75;24.38;;;12.10;99.90;;;;;;5056830;28;20056;-43
2021/11/20 10:20:57;;;;;;;35.33;27.98;;;12.10;99.90;;;;;;5066806;28;20035;-43
2021/11/20 10:23:48;;;;;;;36.15;28.05;;;12.10;99.90;;;;;;5055742;28;20040;-44
2021/11/20 10:26:37;;;;;;;38.20;30.05;;;12.10;99.90;;;;;;5067783;28;20078;-43
2021/11/20 10:29:25;;;;;;;36.97;29.73;;;12.20;99.90;;;;;;5066540;28;20717;-43
2021/11/20 10:32:17;;;;;;;37.33;28.92;;;12.20;99.90;;;;;;5066904;28;20036;-44
2021/11/20 10:34:55;;;;;;;40.33;29.73;;;12.10;99.90;;;;;;5046661;28;20039;-42
2021/11/20 10:37:44;;;;;;;34.70;27.40;;;12.10;99.90;;;;;;5066705;28;20031;-43
2021/11/20 10:40:51;;;;;;;37.13;27.92;;;12.10;99.90;;;;;;5066889;28;20078;-43
2021/11/20 10:43:26;;;;;;;37.17;28.27;;;12.10;99.90;;;;;;5048035;28;20035;-43
2021/11/20 10:46:16;;;;;;;37.88;29.70;;;12.20;99.90;;;;;;5066849;28;20086;-44
2021/11/20 10:49:00;;;;;;;41.40;30.10;;;12.10;99.90;;;;;;5057669;28;20033;-44
2021/11/20 10:51:43;;;;;;;37.35;28.25;;;12.20;99.90;;;;;;5066992;28;20057;-44
2021/11/20 10:54:21;;;;;;;35.75;28.75;;;12.20;99.90;;;;;;5067115;28;20199;-44
2021/11/20 10:57:19;;;;;;;37.20;29.00;;;12.20;99.90;;;;;;5066137;28;20016;-44
2021/11/20 11:00:07;;;;;;;37.58;28.90;;;12.10;99.90;;;;;;5066716;28;20033;-44
2021/11/20 11:02:46;;;;;;;37.67;27.58;;;12.10;99.90;;;;;;5066645;28;20029;-43
2021/11/20 11:05:12;;;;;;;39.53;30.40;;;12.10;99.90;;;;;;5066567;28;20796;-43
2021/11/20 11:08:09;;;;;;;40.65;30.63;;;12.10;99.90;;;;;;5069836;28;20060;-44
2021/11/20 11:10:43;;;;;;;38.63;29.02;;;12.10;99.90;;;;;;5050128;28;20033;-43
2021/11/20 11:13:24;;;;;;;38.92;28.55;;;12.10;99.90;;;;;;5067065;28;20027;-43
2021/11/20 11:16:16;;;;;;;36.53;27.98;;;12.20;99.90;;;;;;5050883;28;20061;-43
2021/11/20 11:18:52;;;;;;;39.03;28.83;;;12.10;99.90;;;;;;5068541;28;20131;-43
2021/11/20 11:21:57;;;;;;;34.60;27.33;;;12.10;99.90;;;;;;5070884;28;20033;-43
2021/11/20 11:24:52;;;;;;;37.95;27.88;;;12.20;99.90;;;;;;5069941;28;20547;-43
2021/11/20 11:27:48;;;;;;;36.58;27.42;;;12.20;99.90;;;;;;5071234;28;20040;-44
2021/11/20 11:30:42;;;;;;;40.45;29.63;;;12.20;99.90;;;;;;5063310;28;20028;-43
2021/11/20 11:33:08;;;;;;;36.95;27.63;;;12.20;99.90;;;;;;5070377;28;20029;-42
2021/11/20 11:35:44;;;;;;;37.17;27.52;;;12.20;99.90;;;;;;5070408;28;20036;-44
2021/11/20 11:38:19;;;;;;;41.42;30.65;;;12.20;99.90;;;;;;5069889;28;20024;-43
2021/11/20 11:41:05;;;;;;;40.42;29.70;;;12.20;99.90;;;;;;5070072;28;20067;-33
2021/11/20 11:43:42;;;;;;;37.70;29.08;;;12.20;99.90;;;;;;5067588;28;20040;-33
2021/11/20 11:46:29;;;;;;;38.88;29.58;;;12.20;99.90;;;;;;5070330;28;20028;-33
2021/11/20 11:49:37;;;;;;;41.40;30.67;;;12.20;99.90;;;;;;5070136;28;20376;-33
2021/11/20 11:52:21;;;;;;;44.83;30.63;;;12.20;99.90;;;;;;5049964;28;20033;-33
2021/11/20 11:55:01;;;;;;;41.67;30.45;;;12.20;99.90;;;;;;5068118;28;20051;-32
2021/11/20 11:58:04;;;;;;;38.45;28.40;;;12.10;99.90;;;;;;5069546;28;20025;-32
2021/11/20 12:00:35;;;;;;;43.08;31.08;;;12.20;99.90;;;;;;5068866;28;20038;-32
2021/11/20 12:03:13;;;;;;;44.75;33.90;;;12.20;99.90;;;;;;5070402;28;20021;-32
2021/11/20 12:05:58;;;;;;;43.38;32.00;;;12.20;99.90;;;;;;5066894;28;20150;-32
2021/11/20 12:08:46;;;;;;;39.03;29.15;;;12.20;99.90;;;;;;5069566;28;20800;-33
2021/11/20 12:11:27;;;;;;;41.30;31.20;;;12.20;99.90;;;;;;5066160;28;20881;-32
2021/11/20 12:14:09;;;;;;;44.78;32.22;;;12.20;99.90;;;;;;5069074;28;20028;-33
2021/11/20 12:16:45;;;;;;;37.03;28.17;;;12.20;99.90;;;;;;5059877;28;20102;-34
2021/11/20 12:19:26;;;;;;;40.88;31.00;;;12.20;99.90;;;;;;5068635;28;20476;-34
2021/11/20 12:22:19;;;;;;;38.53;28.40;;;12.20;99.90;;;;;;5069383;28;20035;-33
2021/11/20 12:24:56;;;;;;;;;;;12.20;99.90;;;;;;5069606;28;20103;-33
2021/11/20 12:27:47;;;;;;;34.38;26.13;;;12.20;99.90;;;;;;5068812;28;19991;-34
2021/11/20 12:30:34;;;;;;;29.33;23.50;;;12.20;99.90;;;;;;5069749;28;20465;-33
2021/11/20 12:33:33;;;;;;;32.42;24.63;;;12.20;99.90;;;;;;5069522;28;20111;-33
2021/11/20 12:36:17;;;;;;;27.40;22.10;;;12.20;99.90;;;;;;5068442;28;20059;-33
2021/11/20 12:39:08;;;;;;;31.55;24.85;;;12.20;99.90;;;;;;5049670;28;20033;-33
2021/11/20 12:41:52;;;;;;;33.92;24.60;;;12.20;99.90;;;;;;5068260;28;20051;-33
2021/11/20 12:44:41;;;;;;;29.95;22.08;;;12.20;99.90;;;;;;5069696;28;20035;-33
2021/11/20 12:47:26;;;;;;;27.30;20.40;;;12.20;99.90;;;;;;5069604;28;20032;-32
2021/11/20 12:50:06;;;;;;;28.77;22.65;;;12.20;99.90;;;;;;5068472;28;20036;-33
2021/11/20 12:52:46;;;;;;;33.45;24.70;;;12.20;99.90;;;;;;5069137;28;20074;-33
2021/11/20 12:55:18;;;;;;;28.08;21.10;;;12.20;99.90;;;;;;5068297;28;20043;-34
2021/11/20 12:57:54;;;;;;;25.00;19.83;;;12.20;99.90;;;;;;5068984;28;20369;-33